Time;durP1;ratioP1;P1;durP2;ratioP2;P2;SDS_P1;SDS_P2;PMS_P1;PMS_P2;Temp;Humidity;BMP_temperature;BMP_pressure;BME280_temperature;BME280_humidity;BME280_pressure;Samples;Min_cycle;Max_cycle;Signal;HPM_P1;HPM_P2
2022/02/17 00:01:49;;;;;;;19.98;9.13;;;;;;;;;;4897180;29;20056;-64
2022/02/17 00:04:22;;;;;;;21.92;9.27;;;;;;;;;;4931246;29;20052;-64
2022/02/17 00:06:52;;;;;;;23.60;9.50;;;;;;;;;;4931042;29;20348;-64
2022/02/17 00:09:22;;;;;;;22.85;9.20;;;;;;;;;;4899828;29;20066;-64
2022/02/17 00:11:52;;;;;;;21.05;9.50;;;;;;;;;;4899903;29;20435;-64
2022/02/17 00:14:23;;;;;;;18.42;9.10;;;;;;;;;;4915857;29;20129;-64
2022/02/17 00:16:53;;;;;;;19.05;9.38;;;;;;;;;;4899648;29;20052;-64
2022/02/17 00:19:23;;;;;;;26.92;8.82;;;;;;;;;;4940669;28;20084;-64
2022/02/17 00:21:53;;;;;;;20.48;8.48;;;;;;;;;;4950415;28;20059;-64
2022/02/17 00:24:25;;;;;;;21.50;9.10;;;;;;;;;;4934497;29;20062;-64
2022/02/17 00:26:56;;;;;;;22.15;9.93;;;;;;;;;;4969269;28;20055;-64
2022/02/17 00:29:27;;;;;;;18.33;9.20;;;;;;;;;;4989009;28;20062;-65
2022/02/17 00:31:57;;;;;;;21.48;9.30;;;;;;;;;;4956833;28;20057;-65
2022/02/17 00:34:28;;;;;;;19.60;9.43;;;;;;;;;;4989125;28;20046;-65
2022/02/17 00:36:59;;;;;;;17.35;9.02;;;;;;;;;;4949718;29;20051;-65
2022/02/17 00:39:33;;;;;;;21.23;9.60;;;;;;;;;;4918633;29;20060;-65
2022/02/17 00:42:04;;;;;;;18.10;9.23;;;;;;;;;;4960168;28;20388;-65
2022/02/17 00:44:34;;;;;;;22.08;9.90;;;;;;;;;;4891052;28;20051;-65
2022/02/17 00:47:06;;;;;;;24.33;9.23;;;;;;;;;;4969370;28;20058;-65
2022/02/17 00:49:37;;;;;;;25.80;10.23;;;;;;;;;;4930594;29;20608;-65
2022/02/17 00:52:08;;;;;;;21.77;9.13;;;;;;;;;;4914982;29;20051;-65
2022/02/17 00:54:38;;;;;;;22.08;9.35;;;;;;;;;;4915000;29;20189;-65
2022/02/17 00:57:09;;;;;;;24.15;10.05;;;;;;;;;;4930727;29;20085;-65
2022/02/17 00:59:42;;;;;;;22.67;9.60;;;;;;;;;;4931065;29;20068;-65
2022/02/17 01:02:15;;;;;;;27.48;9.15;;;;;;;;;;4889042;29;20067;-65
2022/02/17 01:04:46;;;;;;;30.40;9.18;;;;;;;;;;4915253;29;20063;-65
2022/02/17 01:07:16;;;;;;;24.20;9.45;;;;;;;;;;4884177;29;20056;-65
2022/02/17 01:09:47;;;;;;;21.00;9.20;;;;;;;;;;4915480;29;20063;-65
2022/02/17 01:12:17;;;;;;;28.35;9.88;;;;;;;;;;4899229;29;20064;-65
2022/02/17 01:14:47;;;;;;;19.50;9.13;;;;;;;;;;4910486;29;20048;-65
2022/02/17 01:17:17;;;;;;;26.20;9.43;;;;;;;;;;4902529;29;21146;-65
2022/02/17 01:19:48;;;;;;;19.85;9.02;;;;;;;;;;4933544;29;20487;-65
2022/02/17 01:22:18;;;;;;;20.92;9.15;;;;;;;;;;4902750;29;20067;-65
2022/02/17 01:24:54;;;;;;;22.02;9.50;;;;;;;;;;4934346;29;20047;-65
2022/02/17 01:27:24;;;;;;;20.45;9.40;;;;;;;;;;4909075;29;20051;-65
2022/02/17 01:29:56;;;;;;;23.65;9.15;;;;;;;;;;4918186;29;20424;-65
2022/02/17 01:32:28;;;;;;;25.60;8.70;;;;;;;;;;4899557;29;20071;-65
2022/02/17 01:34:59;;;;;;;20.58;8.65;;;;;;;;;;4906581;29;20059;-65
2022/02/17 01:37:29;;;;;;;22.80;9.93;;;;;;;;;;4880141;29;20048;-65
2022/02/17 01:40:00;;;;;;;22.25;8.32;;;;;;;;;;4895688;29;20048;-65
2022/02/17 01:42:31;;;;;;;24.67;9.35;;;;;;;;;;4892054;29;20057;-65
2022/02/17 01:45:05;;;;;;;21.35;9.02;;;;;;;;;;4914520;29;20146;-65
2022/02/17 01:47:35;;;;;;;16.10;8.63;;;;;;;;;;4914676;29;20047;-65
2022/02/17 01:50:07;;;;;;;18.02;8.45;;;;;;;;;;4914475;29;20481;-65
2022/02/17 01:52:40;;;;;;;18.63;8.63;;;;;;;;;;4914038;29;20052;-65
2022/02/17 01:55:11;;;;;;;19.48;9.65;;;;;;;;;;4914783;29;20071;-65
2022/02/17 01:57:42;;;;;;;20.23;8.98;;;;;;;;;;4842523;29;20422;-65
2022/02/17 02:00:17;;;;;;;17.85;8.15;;;;;;;;;;4857780;29;20111;-65
2022/02/17 02:02:47;;;;;;;17.73;8.35;;;;;;;;;;4826961;29;20465;-65
2022/02/17 02:05:32;;;;;;;19.85;8.88;;;;;;;;;;4844474;29;20050;-65
2022/02/17 02:08:04;;;;;;;20.00;8.13;;;;;;;;;;4824250;29;20061;-65
2022/02/17 02:10:38;;;;;;;21.77;8.55;;;;;;;;;;4827005;29;20767;-65
2022/02/17 02:13:09;;;;;;;21.63;8.60;;;;;;;;;;4805030;29;20042;-65
2022/02/17 02:15:53;;;;;;;17.75;8.40;;;;;;;;;;4844556;29;20054;-65
2022/02/17 02:18:26;;;;;;;22.55;8.80;;;;;;;;;;4820995;29;20059;-65
2022/02/17 02:20:57;;;;;;;17.20;8.43;;;;;;;;;;4852017;29;20066;-65
2022/02/17 02:23:37;;;;;;;19.20;8.48;;;;;;;;;;4821264;29;20550;-65
2022/02/17 02:26:09;;;;;;;27.33;8.27;;;;;;;;;;4851779;29;20503;-65
2022/02/17 02:28:40;;;;;;;24.20;9.10;;;;;;;;;;4839412;29;20065;-65
2022/02/17 02:31:11;;;;;;;21.48;8.80;;;;;;;;;;4839092;29;20312;-65
2022/02/17 02:33:45;;;;;;;14.35;7.93;;;;;;;;;;4839482;29;20066;-65
2022/02/17 02:36:15;;;;;;;21.95;8.43;;;;;;;;;;4855065;29;20057;-65
2022/02/17 02:38:59;;;;;;;18.92;7.88;;;;;;;;;;4858947;29;20512;-65
2022/02/17 02:41:51;;;;;;;16.10;7.35;;;;;;;;;;4875985;29;20049;-65
2022/02/17 02:44:22;;;;;;;22.48;8.68;;;;;;;;;;4875392;29;20558;-65
2022/02/17 02:47:01;;;;;;;19.17;7.60;;;;;;;;;;4847023;29;20411;-65
2022/02/17 02:49:38;;;;;;;19.90;7.50;;;;;;;;;;4839068;29;20058;-65
2022/02/17 02:52:09;;;;;;;16.90;7.55;;;;;;;;;;4853064;29;20073;-65
2022/02/17 02:54:43;;;;;;;20.35;8.07;;;;;;;;;;4839128;29;20184;-65
2022/02/17 02:57:13;;;;;;;19.77;7.95;;;;;;;;;;4856845;29;20062;-65
2022/02/17 02:59:45;;;;;;;18.80;7.57;;;;;;;;;;4823529;29;20058;-65
2022/02/17 03:02:20;;;;;;;17.98;7.80;;;;;;;;;;4823857;29;20137;-64
2022/02/17 03:04:50;;;;;;;18.73;7.30;;;;;;;;;;4856972;29;20056;-65
2022/02/17 03:07:21;;;;;;;15.57;7.38;;;;;;;;;;4875435;29;20057;-64
2022/02/17 03:09:51;;;;;;;14.63;6.57;;;;;;;;;;4877162;29;20066;-65
2022/02/17 03:12:21;;;;;;;15.75;7.03;;;;;;;;;;4871763;29;20069;-65
2022/02/17 03:14:53;;;;;;;15.85;7.25;;;;;;;;;;4856466;29;20507;-65
2022/02/17 03:17:27;;;;;;;18.98;6.30;;;;;;;;;;4790399;29;20079;-65
2022/02/17 03:19:57;;;;;;;16.88;7.45;;;;;;;;;;4817085;29;20520;-65
2022/02/17 03:22:28;;;;;;;14.43;7.07;;;;;;;;;;4841172;29;20065;-65
2022/02/17 03:25:02;;;;;;;21.40;8.48;;;;;;;;;;4838174;29;20085;-64
2022/02/17 03:27:33;;;;;;;16.73;7.18;;;;;;;;;;4793094;29;20505;-65
2022/02/17 03:30:36;;;;;;;16.48;7.35;;;;;;;;;;4789585;29;20060;-65
2022/02/17 03:33:16;;;;;;;15.98;7.72;;;;;;;;;;4752419;30;20063;-65
2022/02/17 03:35:47;;;;;;;17.52;6.65;;;;;;;;;;4783407;29;20105;-65
2022/02/17 03:38:18;;;;;;;15.02;6.93;;;;;;;;;;4783884;29;20055;-65
2022/02/17 03:40:51;;;;;;;14.95;6.85;;;;;;;;;;4768436;29;20526;-65
2022/02/17 03:43:30;;;;;;;19.90;6.75;;;;;;;;;;4702761;30;20068;-65
2022/02/17 03:46:01;;;;;;;17.02;6.50;;;;;;;;;;4730516;30;20071;-65
2022/02/17 03:48:32;;;;;;;14.80;7.05;;;;;;;;;;4747003;30;20056;-65
2022/02/17 03:51:06;;;;;;;17.48;6.75;;;;;;;;;;4748171;30;20052;-65
2022/02/17 03:53:38;;;;;;;15.70;7.40;;;;;;;;;;4799377;29;20516;-65
2022/02/17 03:56:09;;;;;;;12.98;7.38;;;;;;;;;;4788434;29;20073;-65
2022/02/17 03:59:01;;;;;;;22.10;7.70;;;;;;;;;;4820160;29;20050;-65
2022/02/17 04:01:37;;;;;;;15.95;7.50;;;;;;;;;;4819728;29;20065;-65
2022/02/17 04:04:11;;;;;;;17.08;7.80;;;;;;;;;;4775242;29;20054;-65
2022/02/17 04:06:43;;;;;;;19.05;7.80;;;;;;;;;;4779499;29;20058;-65
2022/02/17 04:09:13;;;;;;;16.05;7.00;;;;;;;;;;4801463;29;20070;-65
2022/02/17 04:11:44;;;;;;;14.93;7.05;;;;;;;;;;4801514;29;20047;-65
2022/02/17 04:14:15;;;;;;;14.45;6.70;;;;;;;;;;4816285;29;20054;-65
2022/02/17 04:16:50;;;;;;;12.30;6.45;;;;;;;;;;4801159;29;20068;-65
2022/02/17 04:19:32;;;;;;;14.90;6.28;;;;;;;;;;4801034;29;20066;-65
2022/02/17 04:22:33;;;;;;;19.15;6.28;;;;;;;;;;4853138;29;20732;-65
2022/02/17 04:25:17;;;;;;;11.85;5.95;;;;;;;;;;4831732;29;20054;-65
2022/02/17 04:27:48;;;;;;;14.20;6.13;;;;;;;;;;4855737;29;20054;-65
2022/02/17 04:30:19;;;;;;;10.82;5.43;;;;;;;;;;4874597;29;20057;-65
2022/02/17 04:32:49;;;;;;;11.63;5.53;;;;;;;;;;4870887;29;20053;-65
2022/02/17 04:35:37;;;;;;;13.35;5.55;;;;;;;;;;4874209;29;20049;-65
2022/02/17 04:38:10;;;;;;;11.73;5.68;;;;;;;;;;4895637;29;20057;-65
2022/02/17 04:43:36;;;;;;;19.67;5.28;;;;;;;;;;4889971;29;20051;-65
2022/02/17 04:46:07;;;;;;;13.00;5.70;;;;;;;;;;4859668;29;20550;-65
2022/02/17 04:48:38;;;;;;;12.50;5.55;;;;;;;;;;4842185;29;20068;-65
2022/02/17 04:51:12;;;;;;;12.43;5.50;;;;;;;;;;4862695;29;20064;-65
2022/02/17 04:53:42;;;;;;;13.05;6.13;;;;;;;;;;4832033;29;20052;-65
2022/02/17 04:56:14;;;;;;;13.63;5.40;;;;;;;;;;4834449;29;20590;-65
2022/02/17 04:58:45;;;;;;;11.07;5.75;;;;;;;;;;4841100;29;20054;-65
2022/02/17 05:01:16;;;;;;;10.35;5.07;;;;;;;;;;4877712;29;20053;-65
2022/02/17 05:03:53;;;;;;;12.63;6.60;;;;;;;;;;4840498;29;20070;-65
2022/02/17 05:06:24;;;;;;;14.02;6.05;;;;;;;;;;4824759;29;20111;-65
2022/02/17 05:08:56;;;;;;;12.65;6.10;;;;;;;;;;4821015;29;20058;-64
2022/02/17 05:11:27;;;;;;;21.30;7.33;;;;;;;;;;4838316;29;20050;-65
2022/02/17 05:13:57;;;;;;;18.45;8.65;;;;;;;;;;4837072;29;20488;-65
2022/02/17 05:16:28;;;;;;;17.33;8.00;;;;;;;;;;4788882;29;20062;-65
2022/02/17 05:18:59;;;;;;;17.38;7.60;;;;;;;;;;4804540;29;20062;-65
2022/02/17 05:21:44;;;;;;;14.77;6.53;;;;;;;;;;4803848;29;20055;-65
2022/02/17 05:24:49;;;;;;;17.88;6.80;;;;;;;;;;4840876;29;20103;-65
2022/02/17 05:27:34;;;;;;;11.82;5.97;;;;;;;;;;4814052;29;20470;-65
2022/02/17 05:30:43;;;;;;;11.77;5.82;;;;;;;;;;4841058;29;20090;-65
2022/02/17 05:33:32;;;;;;;11.98;5.60;;;;;;;;;;4827403;29;20050;-65
2022/02/17 05:36:02;;;;;;;12.25;5.45;;;;;;;;;;4831039;29;20053;-65
2022/02/17 05:38:59;;;;;;;14.35;5.78;;;;;;;;;;4858460;29;20058;-65
2022/02/17 05:41:50;;;;;;;12.32;5.82;;;;;;;;;;4840966;29;20422;-65
2022/02/17 05:44:21;;;;;;;13.82;5.32;;;;;;;;;;4840284;29;20065;-65
2022/02/17 05:46:52;;;;;;;13.93;5.57;;;;;;;;;;4813524;29;20062;-65
2022/02/17 05:49:22;;;;;;;10.65;5.88;;;;;;;;;;4844093;29;20062;-65
2022/02/17 05:51:53;;;;;;;10.32;5.07;;;;;;;;;;4843507;29;20058;-65
2022/02/17 05:54:24;;;;;;;11.65;5.18;;;;;;;;;;4822044;29;20063;-65
2022/02/17 05:56:53;;;;;;;16.70;5.75;;;;;;;;;;4821868;29;20120;-65
2022/02/17 05:59:24;;;;;;;13.20;5.88;;;;;;;;;;4852869;29;20068;-65
2022/02/17 06:01:54;;;;;;;12.70;6.35;;;;;;;;;;4845346;29;20053;-65
2022/02/17 06:04:24;;;;;;;12.75;5.80;;;;;;;;;;4877090;29;20057;-65
2022/02/17 06:06:54;;;;;;;12.73;5.47;;;;;;;;;;4891643;29;20064;-65
2022/02/17 06:09:24;;;;;;;11.43;5.38;;;;;;;;;;4914463;29;20075;-65
2022/02/17 06:11:55;;;;;;;12.50;5.40;;;;;;;;;;4882976;29;20412;-65
2022/02/17 06:14:25;;;;;;;15.52;5.50;;;;;;;;;;4914597;29;20056;-64
2022/02/17 06:16:55;;;;;;;10.38;4.70;;;;;;;;;;4907567;29;20413;-65
2022/02/17 06:19:25;;;;;;;13.60;5.47;;;;;;;;;;4914261;29;20567;-65
2022/02/17 06:21:56;;;;;;;10.60;5.00;;;;;;;;;;4914454;29;20060;-65
2022/02/17 06:24:27;;;;;;;9.65;4.90;;;;;;;;;;4867953;29;20072;-65
2022/02/17 06:26:58;;;;;;;13.90;5.18;;;;;;;;;;4914159;29;20067;-65
2022/02/17 06:29:28;;;;;;;11.32;4.68;;;;;;;;;;4867298;29;20060;-65
2022/02/17 06:31:58;;;;;;;10.02;4.50;;;;;;;;;;4914836;29;20052;-65
2022/02/17 06:34:29;;;;;;;9.70;4.90;;;;;;;;;;4932720;29;20059;-65
2022/02/17 06:36:59;;;;;;;10.90;4.60;;;;;;;;;;4932655;29;20162;-65
2022/02/17 06:39:29;;;;;;;12.07;4.85;;;;;;;;;;4932899;29;20064;-65
2022/02/17 06:42:01;;;;;;;9.43;4.80;;;;;;;;;;4932843;29;20505;-65
2022/02/17 06:44:31;;;;;;;10.45;4.82;;;;;;;;;;4932636;29;20055;-65
2022/02/17 06:47:03;;;;;;;9.77;5.25;;;;;;;;;;4932597;29;20059;-65
2022/02/17 06:49:35;;;;;;;8.98;4.63;;;;;;;;;;4932470;29;20047;-65
2022/02/17 06:52:06;;;;;;;11.07;5.07;;;;;;;;;;4932328;29;20062;-65
2022/02/17 06:54:37;;;;;;;11.10;4.75;;;;;;;;;;4920984;28;20046;-65
2022/02/17 06:57:08;;;;;;;13.20;4.75;;;;;;;;;;4939003;28;20055;-65
2022/02/17 06:59:38;;;;;;;12.20;5.68;;;;;;;;;;4950888;28;20051;-65
2022/02/17 07:02:08;;;;;;;9.27;4.82;;;;;;;;;;4881725;29;20489;-65
2022/02/17 07:04:38;;;;;;;10.30;4.68;;;;;;;;;;4859807;29;20778;-65
2022/02/17 07:07:12;;;;;;;10.98;5.13;;;;;;;;;;4875810;29;20069;-65
2022/02/17 07:09:42;;;;;;;10.75;5.22;;;;;;;;;;4875801;29;20463;-65
2022/02/17 07:12:13;;;;;;;9.35;4.60;;;;;;;;;;4875647;29;20490;-65
2022/02/17 07:14:43;;;;;;;9.80;4.95;;;;;;;;;;4844881;29;20049;-65
2022/02/17 07:17:13;;;;;;;9.60;4.72;;;;;;;;;;4875822;29;20106;-65
2022/02/17 07:19:44;;;;;;;11.98;4.70;;;;;;;;;;4875729;29;20076;-65
2022/02/17 07:22:14;;;;;;;10.73;5.03;;;;;;;;;;4847501;29;20065;-65
2022/02/17 07:24:45;;;;;;;9.85;4.47;;;;;;;;;;4913027;29;20056;-65
2022/02/17 07:27:15;;;;;;;8.85;4.43;;;;;;;;;;4913093;29;20060;-65
2022/02/17 07:29:45;;;;;;;10.88;4.93;;;;;;;;;;4881831;29;20104;-65
2022/02/17 07:32:16;;;;;;;15.25;4.90;;;;;;;;;;4913047;29;20056;-65
2022/02/17 07:34:46;;;;;;;10.32;4.63;;;;;;;;;;4912829;29;20178;-65
2022/02/17 07:37:16;;;;;;;13.80;4.97;;;;;;;;;;4922459;29;20071;-65
2022/02/17 07:39:47;;;;;;;12.18;4.22;;;;;;;;;;4914155;28;20055;-65
2022/02/17 07:42:17;;;;;;;12.20;4.95;;;;;;;;;;4893988;29;20048;-65
2022/02/17 07:44:47;;;;;;;11.82;4.57;;;;;;;;;;4912655;29;20071;-65
2022/02/17 07:47:18;;;;;;;10.15;5.00;;;;;;;;;;4893650;29;20548;-65
2022/02/17 07:49:49;;;;;;;11.20;4.65;;;;;;;;;;4874796;29;20053;-65
2022/02/17 07:52:20;;;;;;;11.38;4.60;;;;;;;;;;4893539;29;20052;-65
2022/02/17 07:54:51;;;;;;;10.52;4.70;;;;;;;;;;4893453;29;20060;-65
2022/02/17 07:57:20;;;;;;;11.68;4.95;;;;;;;;;;4893973;29;20064;-65
2022/02/17 07:59:51;;;;;;;12.00;5.32;;;;;;;;;;4893557;29;20071;-65
2022/02/17 08:02:22;;;;;;;11.30;4.55;;;;;;;;;;4893716;29;20061;-65
2022/02/17 08:04:52;;;;;;;12.98;4.45;;;;;;;;;;4893649;29;20406;-65
2022/02/17 08:07:25;;;;;;;12.35;4.88;;;;;;;;;;4893630;29;20052;-65
2022/02/17 08:09:56;;;;;;;13.05;4.75;;;;;;;;;;4893640;29;20061;-65
2022/02/17 08:12:26;;;;;;;9.68;4.88;;;;;;;;;;4892939;29;20441;-65
2022/02/17 08:14:58;;;;;;;9.80;4.57;;;;;;;;;;4862931;29;20068;-65
2022/02/17 08:17:28;;;;;;;11.80;4.18;;;;;;;;;;4862604;29;20052;-65
2022/02/17 08:19:58;;;;;;;10.82;4.53;;;;;;;;;;4881783;29;20064;-65
2022/02/17 08:22:29;;;;;;;9.57;4.40;;;;;;;;;;4931378;29;20052;-65
2022/02/17 08:24:59;;;;;;;9.75;4.72;;;;;;;;;;4924708;29;20047;-65
2022/02/17 08:27:31;;;;;;;9.18;4.20;;;;;;;;;;4951053;28;20051;-65
2022/02/17 08:30:01;;;;;;;9.02;4.35;;;;;;;;;;4951023;28;20066;-65
2022/02/17 08:32:39;;;;;;;7.90;3.88;;;;;;;;;;4969848;28;20066;-65
2022/02/17 08:35:10;;;;;;;8.73;4.63;;;;;;;;;;4969239;28;20059;-65
2022/02/17 08:37:42;;;;;;;11.60;4.10;;;;;;;;;;4950157;29;20055;-65
2022/02/17 08:40:13;;;;;;;8.77;4.03;;;;;;;;;;4949818;29;20064;-65
2022/02/17 08:42:44;;;;;;;14.60;4.00;;;;;;;;;;4950471;29;20052;-65
2022/02/17 08:45:14;;;;;;;7.93;4.10;;;;;;;;;;4902820;29;20103;-65
2022/02/17 08:47:44;;;;;;;12.48;4.45;;;;;;;;;;4899306;29;20051;-65
2022/02/17 08:50:14;;;;;;;19.17;4.63;;;;;;;;;;4930994;29;20052;-65
2022/02/17 08:52:46;;;;;;;10.60;4.10;;;;;;;;;;4915094;29;20066;-65
2022/02/17 08:55:37;;;;;;;10.57;4.65;;;;;;;;;;4930931;29;20412;-65
2022/02/17 08:58:07;;;;;;;10.30;4.50;;;;;;;;;;4931100;29;20055;-65
2022/02/17 09:00:40;;;;;;;;;;;;;;;;;;4906087;29;20710;-65
2022/02/17 09:03:11;;;;;;;9.90;4.18;;;;;;;;;;4950436;28;19931;-65
2022/02/17 09:05:42;;;;;;;10.73;4.15;;;;;;;;;;4950117;28;20051;-65
2022/02/17 09:08:31;;;;;;;10.23;4.38;;;;;;;;;;4918232;28;20198;-65
2022/02/17 09:11:02;;;;;;;9.68;3.97;;;;;;;;;;4930793;29;20055;-65
2022/02/17 09:13:34;;;;;;;11.88;4.22;;;;;;;;;;4884202;29;20055;-65
2022/02/17 09:16:05;;;;;;;12.50;4.55;;;;;;;;;;4915135;29;20559;-65
2022/02/17 09:18:36;;;;;;;10.57;4.88;;;;;;;;;;4965803;28;20062;-65
2022/02/17 09:21:06;;;;;;;10.38;4.28;;;;;;;;;;4969145;28;20565;-65
2022/02/17 09:23:36;;;;;;;9.85;4.75;;;;;;;;;;4971913;28;20062;-65
2022/02/17 09:26:08;;;;;;;9.93;4.50;;;;;;;;;;4988037;28;20059;-66
2022/02/17 09:28:39;;;;;;;13.20;4.10;;;;;;;;;;4975784;28;20069;-67
2022/02/17 09:31:29;;;;;;;15.95;4.47;;;;;;;;;;4992055;28;20058;-65
2022/02/17 09:33:59;;;;;;;10.52;4.50;;;;;;;;;;4943214;28;20054;-65
2022/02/17 09:36:33;;;;;;;11.65;4.38;;;;;;;;;;4943908;28;20217;-65
2022/02/17 09:39:03;;;;;;;15.45;4.40;;;;;;;;;;4953031;29;20051;-65
2022/02/17 09:41:33;;;;;;;18.80;5.10;;;;;;;;;;4911429;28;20059;-65
2022/02/17 09:44:09;;;;;;;12.25;4.80;;;;;;;;;;4933583;29;20063;-65
2022/02/17 09:46:45;;;;;;;10.65;4.68;;;;;;;;;;4934156;29;20052;-65
2022/02/17 09:49:17;;;;;;;13.10;4.72;;;;;;;;;;4886503;29;20052;-66
2022/02/17 09:51:51;;;;;;;14.02;5.32;;;;;;;;;;4883154;29;20059;-65
2022/02/17 09:54:23;;;;;;;9.82;4.22;;;;;;;;;;4883761;29;20087;-65
2022/02/17 09:56:54;;;;;;;8.95;4.07;;;;;;;;;;4895764;29;20061;-66
2022/02/17 09:59:25;;;;;;;8.82;4.25;;;;;;;;;;4895688;29;20052;-65
2022/02/17 10:02:00;;;;;;;10.00;4.13;;;;;;;;;;4895779;29;20064;-65
2022/02/17 10:04:32;;;;;;;11.05;4.13;;;;;;;;;;4858289;29;20070;-65
2022/02/17 10:07:10;;;;;;;10.77;4.50;;;;;;;;;;4827623;29;20060;-65
2022/02/17 10:09:47;;;;;;;11.27;4.45;;;;;;;;;;4873377;29;20050;-65
2022/02/17 10:12:17;;;;;;;10.52;4.25;;;;;;;;;;4858495;29;20049;-65
2022/02/17 10:14:58;;;;;;;10.48;4.57;;;;;;;;;;4843121;29;20588;-65
2022/02/17 10:17:29;;;;;;;7.35;4.13;;;;;;;;;;4873563;29;20560;-66
2022/02/17 10:19:59;;;;;;;11.07;4.07;;;;;;;;;;4876792;29;20486;-65
2022/02/17 10:22:31;;;;;;;20.67;5.10;;;;;;;;;;4907617;29;20060;-66
2022/02/17 10:25:01;;;;;;;14.57;5.07;;;;;;;;;;4876108;29;20056;-65
2022/02/17 10:27:33;;;;;;;21.70;5.22;;;;;;;;;;4876107;29;20060;-65
2022/02/17 10:30:10;;;;;;;17.55;5.40;;;;;;;;;;4874776;29;20057;-66
2022/02/17 10:32:56;;;;;;;21.25;5.30;;;;;;;;;;4895216;29;20057;-66
2022/02/17 10:35:28;;;;;;;10.88;4.03;;;;;;;;;;4894100;29;20056;-66
2022/02/17 10:38:01;;;;;;;14.27;5.32;;;;;;;;;;4895094;29;20060;-65
2022/02/17 10:40:36;;;;;;;11.65;5.13;;;;;;;;;;4865360;29;20061;-65
2022/02/17 10:43:12;;;;;;;9.52;4.05;;;;;;;;;;4947924;29;20059;-65
2022/02/17 10:45:45;;;;;;;14.82;5.05;;;;;;;;;;4951916;29;20055;-65
2022/02/17 10:48:16;;;;;;;14.30;4.55;;;;;;;;;;4951734;29;20051;-65
2022/02/17 10:51:09;;;;;;;9.55;4.20;;;;;;;;;;4920710;29;20070;-65
2022/02/17 10:53:45;;;;;;;11.82;4.07;;;;;;;;;;4951837;29;20586;-65
2022/02/17 10:56:22;;;;;;;12.45;4.47;;;;;;;;;;4920158;29;20047;-65
2022/02/17 10:58:59;;;;;;;11.77;4.30;;;;;;;;;;4951649;29;20051;-65
2022/02/17 11:01:29;;;;;;;11.43;4.57;;;;;;;;;;4951966;28;20055;-65
2022/02/17 11:04:00;;;;;;;8.85;4.35;;;;;;;;;;4970801;28;20423;-65
2022/02/17 11:06:31;;;;;;;12.30;4.75;;;;;;;;;;4951104;29;20058;-65
2022/02/17 11:09:03;;;;;;;11.38;4.28;;;;;;;;;;4951530;29;20164;-65
2022/02/17 11:11:33;;;;;;;13.40;4.40;;;;;;;;;;4919891;29;20062;-65
2022/02/17 11:14:05;;;;;;;8.18;4.32;;;;;;;;;;4951563;29;20047;-65
2022/02/17 11:16:40;;;;;;;7.20;3.10;;;;;;;;;;4951285;29;20059;-65
2022/02/17 11:19:10;;;;;;;5.70;2.92;;;;;;;;;;4951146;29;20063;-64
2022/02/17 11:21:41;;;;;;;8.88;2.90;;;;;;;;;;4950984;29;20056;-65
2022/02/17 11:24:14;;;;;;;6.82;2.28;;;;;;;;;;4951332;29;20055;-65
2022/02/17 11:26:44;;;;;;;6.70;2.50;;;;;;;;;;4951200;29;20054;-65
2022/02/17 11:29:30;;;;;;;6.45;2.60;;;;;;;;;;4951128;29;20501;-65
2022/02/17 11:32:11;;;;;;;5.68;2.30;;;;;;;;;;4950996;29;20156;-65
2022/02/17 11:34:43;;;;;;;5.28;2.35;;;;;;;;;;4950753;29;20571;-65
2022/02/17 11:37:30;;;;;;;;;;;;;;;;;;4951395;29;20062;-65
2022/02/17 11:40:08;;;;;;;5.07;2.03;;;;;;;;;;4950916;29;19922;-64
2022/02/17 11:42:45;;;;;;;6.10;2.05;;;;;;;;;;4987352;28;20054;-65
2022/02/17 11:45:23;;;;;;;9.05;2.03;;;;;;;;;;4976067;28;20058;-65
2022/02/17 11:48:02;;;;;;;5.80;1.92;;;;;;;;;;4994450;28;20065;-65
2022/02/17 11:50:45;;;;;;;5.20;2.10;;;;;;;;;;4954084;28;20051;-65
2022/02/17 11:53:37;;;;;;;6.47;2.03;;;;;;;;;;4954075;28;20050;-64
2022/02/17 11:56:07;;;;;;;4.00;2.25;;;;;;;;;;4954109;28;20043;-65
2022/02/17 11:58:52;;;;;;;5.00;2.20;;;;;;;;;;4970171;28;20533;-65
2022/02/17 12:01:29;;;;;;;6.68;2.08;;;;;;;;;;4969867;28;20062;-64
2022/02/17 12:04:09;;;;;;;3.55;1.60;;;;;;;;;;4970201;28;20115;-65
2022/02/17 12:07:04;;;;;;;5.60;1.85;;;;;;;;;;4950550;29;20054;-64
2022/02/17 12:09:45;;;;;;;6.00;2.05;;;;;;;;;;4888381;29;20058;-64
2022/02/17 12:12:34;;;;;;;3.42;1.80;;;;;;;;;;4938310;29;20412;-65
2022/02/17 12:15:07;;;;;;;7.68;2.03;;;;;;;;;;4950622;29;20051;-66
2022/02/17 12:17:39;;;;;;;4.97;1.95;;;;;;;;;;4950518;29;20074;-67
2022/02/17 12:20:11;;;;;;;5.68;2.20;;;;;;;;;;4903535;29;20079;-65
2022/02/17 12:23:08;;;;;;;4.13;1.98;;;;;;;;;;4950325;29;20098;-65
2022/02/17 12:25:46;;;;;;;4.75;2.35;;;;;;;;;;4950190;29;20051;-65
2022/02/17 12:28:17;;;;;;;3.53;1.80;;;;;;;;;;4910157;29;20059;-65
2022/02/17 12:30:50;;;;;;;5.75;1.95;;;;;;;;;;4918693;29;20063;-65
2022/02/17 12:33:26;;;;;;;4.88;1.80;;;;;;;;;;4903560;29;20054;-65
2022/02/17 12:36:02;;;;;;;5.82;1.98;;;;;;;;;;4950075;29;20095;-64
2022/02/17 12:38:34;;;;;;;3.28;1.73;;;;;;;;;;4903147;29;20052;-65
2022/02/17 12:41:13;;;;;;;5.63;2.10;;;;;;;;;;4903029;29;20051;-64
2022/02/17 12:43:44;;;;;;;8.00;2.35;;;;;;;;;;4952851;28;20066;-64
2022/02/17 12:46:16;;;;;;;4.72;2.15;;;;;;;;;;4969699;28;20061;-65
2022/02/17 12:48:46;;;;;;;4.93;1.90;;;;;;;;;;4969807;28;20058;-65
2022/02/17 12:51:35;;;;;;;3.92;2.20;;;;;;;;;;4969606;28;20039;-64
2022/02/17 12:54:15;;;;;;;6.95;2.10;;;;;;;;;;4921661;28;20051;-64
2022/02/17 12:56:47;;;;;;;5.85;2.42;;;;;;;;;;4937324;28;20455;-64
2022/02/17 12:59:18;;;;;;;4.88;2.08;;;;;;;;;;4941193;28;20061;-64
2022/02/17 13:01:55;;;;;;;6.28;2.25;;;;;;;;;;4973439;28;20050;-65
2022/02/17 13:04:28;;;;;;;5.30;2.47;;;;;;;;;;4947355;28;20391;-64
2022/02/17 13:07:04;;;;;;;5.80;2.50;;;;;;;;;;4965327;28;20058;-65
2022/02/17 13:09:35;;;;;;;4.75;2.20;;;;;;;;;;5014423;28;20049;-65
2022/02/17 13:12:09;;;;;;;3.92;2.10;;;;;;;;;;5014623;28;20045;-65
2022/02/17 13:14:45;;;;;;;4.32;2.17;;;;;;;;;;5014361;28;20042;-65
2022/02/17 13:17:25;;;;;;;4.90;2.30;;;;;;;;;;4963216;28;20521;-65
2022/02/17 13:19:56;;;;;;;3.05;1.75;;;;;;;;;;5014219;28;20046;-65
2022/02/17 13:22:40;;;;;;;3.92;2.15;;;;;;;;;;4979717;28;20057;-68
2022/02/17 13:25:12;;;;;;;3.90;1.90;;;;;;;;;;4963595;28;20082;-66
2022/02/17 13:27:44;;;;;;;6.53;3.42;;;;;;;;;;5013984;28;20045;-65
2022/02/17 13:30:18;;;;;;;6.65;2.45;;;;;;;;;;4972428;28;20054;-65
2022/02/17 13:33:02;;;;;;;3.65;2.03;;;;;;;;;;4972769;28;20070;-65
2022/02/17 13:35:48;;;;;;;3.58;1.92;;;;;;;;;;4924364;28;20050;-66
2022/02/17 13:38:27;;;;;;;7.05;2.53;;;;;;;;;;4940496;28;20066;-65
2022/02/17 13:40:58;;;;;;;4.97;2.20;;;;;;;;;;4972552;28;20054;-65
2022/02/17 13:43:44;;;;;;;4.65;2.05;;;;;;;;;;4940911;28;20527;-65
2022/02/17 13:46:15;;;;;;;4.07;2.08;;;;;;;;;;4956307;28;20062;-65
2022/02/17 13:48:45;;;;;;;4.32;2.20;;;;;;;;;;4972452;28;20070;-65
2022/02/17 13:51:15;;;;;;;7.03;2.42;;;;;;;;;;4972311;28;20047;-65
2022/02/17 13:53:48;;;;;;;8.73;3.30;;;;;;;;;;4972344;28;20050;-65
2022/02/17 13:56:23;;;;;;;8.05;2.35;;;;;;;;;;4972374;28;20046;-65
2022/02/17 13:59:02;;;;;;;7.47;2.20;;;;;;;;;;4940396;28;20058;-65
2022/02/17 14:01:44;;;;;;;5.00;2.20;;;;;;;;;;4933405;29;20062;-64
2022/02/17 14:04:28;;;;;;;5.75;2.38;;;;;;;;;;4917786;29;20504;-65
2022/02/17 14:07:04;;;;;;;7.55;2.40;;;;;;;;;;4938480;28;20059;-65
2022/02/17 14:09:35;;;;;;;4.53;2.10;;;;;;;;;;4971011;28;20046;-66
2022/02/17 14:12:06;;;;;;;6.38;2.50;;;;;;;;;;4971919;28;20046;-65
2022/02/17 14:14:36;;;;;;;5.88;2.22;;;;;;;;;;4971850;28;20050;-65
2022/02/17 14:17:07;;;;;;;4.45;2.35;;;;;;;;;;4971730;28;20062;-64
2022/02/17 14:19:39;;;;;;;4.47;2.70;;;;;;;;;;4955583;28;20077;-66
2022/02/17 14:22:09;;;;;;;9.95;2.50;;;;;;;;;;4971757;28;20057;-65
2022/02/17 14:24:42;;;;;;;4.93;2.10;;;;;;;;;;4971784;28;20046;-66
2022/02/17 14:27:14;;;;;;;7.50;2.25;;;;;;;;;;4932656;29;20062;-65
2022/02/17 14:29:44;;;;;;;6.90;2.35;;;;;;;;;;4886297;29;20192;-66
2022/02/17 14:32:14;;;;;;;6.30;2.20;;;;;;;;;;4933337;29;20047;-66
2022/02/17 14:37:44;;;;;;;4.82;2.35;;;;;;;;;;4932898;29;20099;-66
2022/02/17 14:40:17;;;;;;;5.97;2.60;;;;;;;;;;4968576;28;20063;-65
2022/02/17 14:42:50;;;;;;;6.75;2.10;;;;;;;;;;4955817;28;20431;-66
2022/02/17 14:45:21;;;;;;;6.93;2.58;;;;;;;;;;4923514;28;20050;-66
2022/02/17 14:47:53;;;;;;;4.57;2.22;;;;;;;;;;4952028;28;20133;-67
2022/02/17 14:50:26;;;;;;;;;;;;;;;;;;4952468;28;20070;-66
2022/02/17 14:53:02;;;;;;;6.95;2.30;;;;;;;;;;4936841;29;20430;-66
2022/02/17 14:55:33;;;;;;;4.18;2.20;;;;;;;;;;4952184;28;20494;-66
2022/02/17 14:58:04;;;;;;;7.15;2.30;;;;;;;;;;4919818;29;20055;-66
2022/02/17 15:00:34;;;;;;;6.30;2.47;;;;;;;;;;4951694;28;20051;-66
2022/02/17 15:03:04;;;;;;;6.93;2.17;;;;;;;;;;4936233;28;20055;-65
2022/02/17 15:05:34;;;;;;;6.80;2.67;;;;;;;;;;4899780;28;20051;-68
2022/02/17 15:08:05;;;;;;;4.90;2.40;;;;;;;;;;4951742;28;20062;-65
2022/02/17 15:10:35;;;;;;;4.22;2.05;;;;;;;;;;4913014;29;20052;-65
2022/02/17 15:13:06;;;;;;;5.32;2.03;;;;;;;;;;4898786;29;20057;-65
2022/02/17 15:15:37;;;;;;;5.18;2.63;;;;;;;;;;4879296;29;20053;-65
2022/02/17 15:18:07;;;;;;;6.50;2.22;;;;;;;;;;4863149;29;20100;-66
2022/02/17 15:20:38;;;;;;;5.97;2.53;;;;;;;;;;4894011;29;20060;-66